Aviation Digital Data Service (ADDS)

Output produced by METARs form (2343 UTC 20 January 2019)
found at http://www.aviationweather.gov/metar/data/
 
Forecast for: SARI (IGUAZU/CATARATAS, AR)
Text: TAF SARI 202300Z 2100/2124 05005KT CAVOK TX31/2117Z TN19/2109Z
Forecast period: 0000 UTC 21 January 2019 to 0000 UTC 22 January 2019
Forecast type: FROM: standard forecast or significant change
Winds: from the NE (50 degrees) at 6 MPH (5 knots; 2.6 m/s)
Visibility: 6 or more miles 10+ km)
Ceiling: unknown
Clouds: missing
Weather: no significant weather forecast for this period
Text: PROB30 2107/2110 2000 BR NSC
Forecast period: 0700 to 1000 UTC 21 January 2019
Forecast type: PROBABLE: 30 percent likelihood of the following during this time
Visibility: 1.24 miles (2.00 km)
Ceiling: unknown
Clouds: missing
Weather: BR  (mist)